Aérodrome :
LOGIN :

S'inscrire | Disclaimer

   EN    FR    IT 

 










Légende :    VFR   VFR Marginal   IFR   IFR Intensif   IFR Très Intensif
Visi : 
Plafond : 
>= 8 km
>= 3000ft
5 à 8 km
1000 à 3000 ft
1500m à 5 km
500 à 1000 ft
800 à 1500m
200 à 500 ft
< 800m
< 200 ft
Symboles :   Orages  Brouillard  Fortes neiges  Fortes précipitations  Vent > 20 kt
SIGMETs :   Divers  Orages  Givrage  Turbulence  Onde Orograph.  Cendres Volcan.






- Altitude de l'aérodrome : 364 ft


LFAQ - Albert Bray

DERNIER METAR :
  • 291900Z AUTO 20007KT 7000 FEW012 BKN020 OVC041 03/02 Q1026

METARs EXPIRÉS :
  • 291830Z AUTO 19007KT 7000 BKN019 OVC040 02/01 Q1026
  • 291800Z AUTO 21010KT 8000 BKN012 OVC019 03/01 Q1026 BECMG OVC017
  • 291730Z AUTO 22010KT 9999 SCT015 OVC022 03/01 Q1026 NOSIG
  • 291700Z AUTO 21009KT 9999 OVC023 03/01 Q1026 NOSIG
  • 291630Z AUTO 21007KT 9999 OVC021 03/01 Q1026 NOSIG

TAF TAF LFAQ
Valide du 29 à 15h jusqu'au 30 à 00h UTC


291400Z 2915/2924 21007KT 9999 OVC017
BECMG 2920/2922 OVC007
TEMPO 2922/2924 2000 DZRA BR OVC002



MET'MAP, la Météo Aéronautique d'un coup d'oeil ! - Copyright ORBIFLY Décembre 2007 - Disclaimer

ORBIFLY MET'MAP TEAM :

Programmation & Développement : Alexandra Zaïnal
Sur une idée originale de : Baudouin d'Aumeries
Soutien technique & logistique : Manuel Goepfert
Assistance : Marc-Olivier Méhu




SOURCES & CREDITS :

   NOAA